Photometre #846[NE_1.6_Dp] Lerwick_MO AOT

File : 20220923_846.hum

23/09/2022,07:02:33,TEMP=10.7,BA=5.64,STAT.A,ExtBa=12.40
23/09/2022,07:08:32,TEMP=11.1,BA=5.64,STAT.h
23/09/2022,07:08:33,TEMP=11.1,BA=5.64,STAT.h
23/09/2022,07:13:38,TEMP=11.1,BA=5.64,STAT.h
23/09/2022,07:13:39,TEMP=11.1,BA=5.64,STAT.h
23/09/2022,07:21:04,TEMP=11.1,BA=5.64,STAT.h
23/09/2022,07:21:05,TEMP=11.1,BA=5.64,STAT.h
23/09/2022,07:30:05,TEMP=11.1,BA=5.64,STAT.h
23/09/2022,07:30:11,TEMP=11.1,BA=5.64,STAT.h
23/09/2022,07:41:20,TEMP=11.1,BA=5.64,STAT.h
23/09/2022,07:41:26,TEMP=11.1,BA=5.64,STAT.h
23/09/2022,07:55:47,TEMP=11.1,BA=5.64,STAT.h
23/09/2022,08:02:49,TEMP=11.1,BA=5.64,STAT.h
23/09/2022,08:10:46,TEMP=11.1,BA=5.64,STAT.h
23/09/2022,08:10:47,TEMP=11.1,BA=5.64,STAT.h
23/09/2022,08:19:54,TEMP=11.1,BA=5.64,STAT.h
23/09/2022,08:19:55,TEMP=11.1,BA=5.64,STAT.h
23/09/2022,08:30:29,TEMP=11.1,BA=5.64,STAT.h
23/09/2022,08:30:30,TEMP=11.1,BA=5.64,STAT.h
23/09/2022,08:42:57,TEMP=11.1,BA=5.64,STAT.h
23/09/2022,08:57:54,TEMP=14.0,BA=5.64,STAT.F,ExtBa=12.40
23/09/2022,09:23:07,TEMP=15.3,BA=5.56,STAT.D,ExtBa=12.20
23/09/2022,09:27:53,TEMP=15.0,BA=5.56,STAT.D,ExtBa=12.20
23/09/2022,09:42:53,TEMP=14.4,BA=5.64,STAT.D,ExtBa=12.30
23/09/2022,09:57:54,TEMP=13.6,BA=5.64,STAT.F,ExtBa=12.30
23/09/2022,10:26:03,TEMP=14.7,BA=5.56,STAT.D,ExtBa=12.20
23/09/2022,10:28:13,TEMP=15.0,BA=5.56,STAT.D,ExtBa=12.20
23/09/2022,10:42:53,TEMP=15.3,BA=5.64,STAT.D,ExtBa=12.30
23/09/2022,10:57:56,TEMP=14.8,BA=5.64,STAT.F,ExtBa=12.30
23/09/2022,11:23:22,TEMP=15.8,BA=5.56,STAT.D,ExtBa=12.20
23/09/2022,11:28:00,TEMP=15.2,BA=5.56,STAT.D,ExtBa=12.20
23/09/2022,11:42:53,TEMP=15.3,BA=5.64,STAT.D,ExtBa=12.30
23/09/2022,11:57:55,TEMP=16.0,BA=5.64,STAT.F,ExtBa=12.30
23/09/2022,12:24:05,TEMP=16.4,BA=5.56,STAT.D,ExtBa=12.20
23/09/2022,12:27:53,TEMP=15.9,BA=5.56,STAT.D,ExtBa=12.20
23/09/2022,12:42:53,TEMP=15.8,BA=5.64,STAT.D,ExtBa=12.30
23/09/2022,12:57:55,TEMP=15.3,BA=5.64,STAT.F,ExtBa=12.30
23/09/2022,13:23:22,TEMP=16.3,BA=5.52,STAT.D,ExtBa=12.20
23/09/2022,13:27:53,TEMP=15.7,BA=5.52,STAT.D,ExtBa=12.20
23/09/2022,13:42:53,TEMP=15.9,BA=5.64,STAT.D,ExtBa=12.30
23/09/2022,13:57:54,TEMP=16.0,BA=5.64,STAT.F,ExtBa=12.30
23/09/2022,14:24:04,TEMP=16.9,BA=5.52,STAT.D,ExtBa=12.10
23/09/2022,14:27:53,TEMP=16.4,BA=5.52,STAT.D,ExtBa=12.20
23/09/2022,14:42:53,TEMP=16.3,BA=5.64,STAT.D,ExtBa=12.30
23/09/2022,14:57:54,TEMP=15.9,BA=5.64,STAT.F,ExtBa=12.30
23/09/2022,15:23:09,TEMP=16.3,BA=5.52,STAT.C,ExtBa=12.20
23/09/2022,15:48:43,TEMP=15.8,BA=5.52,STAT.A,ExtBa=12.10
23/09/2022,15:58:39,TEMP=15.0,BA=5.52,STAT.A,ExtBa=12.20
23/09/2022,16:04:17,TEMP=15.0,BA=5.52,STAT.A,ExtBa=12.20
23/09/2022,16:09:56,TEMP=14.9,BA=5.52,STAT.A,ExtBa=12.20
23/09/2022,16:15:32,TEMP=14.8,BA=5.52,STAT.B,ExtBa=12.20
23/09/2022,16:25:05,TEMP=14.9,BA=5.52,STAT.A,ExtBa=12.10
23/09/2022,16:31:04,TEMP=14.4,BA=5.52,STAT.A,ExtBa=12.20
23/09/2022,16:37:22,TEMP=14.3,BA=5.52,STAT.A,ExtBa=12.20
23/09/2022,16:43:28,TEMP=14.2,BA=5.48,STAT.A,ExtBa=12.20
23/09/2022,16:49:47,TEMP=14.0,BA=5.48,STAT.A,ExtBa=12.20
23/09/2022,16:56:04,TEMP=13.8,BA=5.52,STAT.A,ExtBa=12.20